There are multiple Weather-warnings   Click here for more information


Meteo18 Weather Cam more information Meteo18 Weather Cam


warning for Thunderstorms more information blitzortung!


Rain radar more information rain snow radar


Visit our other weather sites:

Template documentation
and downloads

And another site



Weather Underground History page Text

Daily Summary for May 18, 2016 Units:  Metric    English   Both
« Previous Day
Next Day »
Daily Weekly Monthly Yearly Custom
  High: Low: Average:
Temperature: 17.7 °C 11.1 °C 15 °C
Dew Point: 12.4 °C 9.6 °C 10.7 °C
Humidity: 94 % 62 % 76 %
Wind Speed: 12.9 km/h 0.0 km/h 4.4 km/h
Wind Gust: 22.5 km/h - -
Wind:- - SW
Pressure: 1013.1 hPa 1008.4 hPa -
Precipitation: 3.6 mm    
Historical Graphs
 
 
Tabular Data for May 18, 2016
Time Temperature Dew Point Pressure Wind Wind Speed Wind Gust Humidity Rainfall Rate (Hourly)
08:17 11.1 °C 10.0 °C 1012.8 hPa Calm     93 % 0.0 mm
08:22 11.1 °C 10.0 °C 1013.1 hPa Calm     93 % 0.0 mm
08:27 11.2 °C 10.1 °C 1012.8 hPa Calm     93 % 0.0 mm
08:32 11.4 °C 10.3 °C 1012.8 hPa Calm     93 % 0.0 mm
08:37 11.7 °C 10.4 °C 1012.8 hPa Calm     92 % 0.0 mm
08:42 11.9 °C 10.5 °C 1012.8 hPa Calm     91 % 0.0 mm
08:52 12.4 °C 10.8 °C 1012.8 hPa Calm     90 % 0.0 mm
10:17 16.0 °C 11.2 °C 1012.4 hPa WSW 1.6 km/h 14.5 km/h 73 % 0.0 mm
10:22 16.2 °C 11.8 °C 1012.4 hPa WSW 6.4 km/h 14.5 km/h 75 % 0.0 mm
10:27 16.2 °C 12.0 °C 1012.4 hPa WSW 4.8 km/h 14.5 km/h 76 % 0.0 mm
10:32 16.2 °C 11.4 °C 1012.4 hPa WSW 6.4 km/h 9.7 km/h 73 % 0.0 mm
10:37 16.2 °C 11.8 °C 1012.4 hPa WSW 1.6 km/h 9.7 km/h 75 % 0.0 mm
10:42 16.2 °C 11.8 °C 1012.4 hPa SSW 3.2 km/h 9.7 km/h 75 % 0.0 mm
10:47 16.6 °C 12.4 °C 1012.1 hPa West 6.4 km/h 9.7 km/h 76 % 0.0 mm
10:52 16.6 °C 11.3 °C 1012.4 hPa WSW 3.2 km/h 9.7 km/h 71 % 0.0 mm
10:57 16.1 °C 10.6 °C 1012.1 hPa SSW 4.8 km/h 9.7 km/h 70 % 0.0 mm
11:02 15.8 °C 10.6 °C 1012.1 hPa SW 4.8 km/h 12.9 km/h 71 % 0.0 mm
11:07 15.8 °C 10.3 °C 1012.4 hPa WSW 3.2 km/h 12.9 km/h 70 % 0.0 mm
11:12 15.8 °C 10.6 °C 1012.1 hPa West 4.8 km/h 12.9 km/h 71 % 0.0 mm
11:17 16.1 °C 11.1 °C 1012.1 hPa Calm   11.3 km/h 72 % 0.0 mm
11:22 16.6 °C 11.9 °C 1012.1 hPa West 3.2 km/h 9.7 km/h 74 % 0.0 mm
11:27 17.0 °C 11.5 °C 1011.7 hPa West 6.4 km/h 9.7 km/h 70 % 0.0 mm
11:32 17.2 °C 11.7 °C 1012.1 hPa SW 3.2 km/h 16.1 km/h 70 % 0.0 mm
11:37 17.0 °C 11.7 °C 1011.7 hPa WSW 3.2 km/h 16.1 km/h 71 % 0.0 mm
11:42 16.7 °C 11.0 °C 1011.7 hPa SW 8.0 km/h 16.1 km/h 69 % 0.0 mm
11:47 16.8 °C 12.3 °C 1011.7 hPa WSW 6.4 km/h 14.5 km/h 75 % 0.0 mm
11:52 16.8 °C 11.3 °C 1011.7 hPa SW 4.8 km/h 14.5 km/h 70 % 0.0 mm
11:57 16.4 °C 10.9 °C 1011.7 hPa South 6.4 km/h 9.7 km/h 70 % 0.0 mm
12:02 16.2 °C 10.9 °C 1011.7 hPa WSW 3.2 km/h 12.9 km/h 71 % 0.0 mm
12:07 16.0 °C 11.2 °C 1011.7 hPa SW 8.0 km/h 12.9 km/h 73 % 0.0 mm
12:12 15.7 °C 10.9 °C 1011.7 hPa SW 1.6 km/h 9.7 km/h 73 % 0.0 mm
12:17 15.5 °C 11.1 °C 1011.7 hPa WSW 11.3 km/h 11.3 km/h 75 % 0.0 mm
12:22 15.6 °C 11.2 °C 1011.7 hPa WSW 6.4 km/h 11.3 km/h 75 % 0.0 mm
12:27 16.1 °C 11.1 °C 1011.7 hPa WSW 4.8 km/h 12.9 km/h 72 % 0.0 mm
12:32 16.3 °C 11.0 °C 1011.7 hPa SW 4.8 km/h 12.9 km/h 71 % 0.0 mm
12:42 16.3 °C 10.6 °C 1011.7 hPa SW 4.8 km/h 17.7 km/h 69 % 0.0 mm
12:47 16.4 °C 10.7 °C 1011.7 hPa West 3.2 km/h 16.1 km/h 69 % 0.0 mm
12:52 16.4 °C 10.7 °C 1011.4 hPa SSW 1.6 km/h 16.1 km/h 69 % 0.0 mm
12:57 16.2 °C 10.3 °C 1011.4 hPa WSW 8.0 km/h 16.1 km/h 68 % 0.0 mm
13:02 16.1 °C 10.0 °C 1011.4 hPa SW 4.8 km/h 16.1 km/h 67 % 0.0 mm
13:07 15.8 °C 10.1 °C 1011.4 hPa SW 4.8 km/h 14.5 km/h 69 % 0.0 mm
13:12 15.8 °C 10.3 °C 1011.4 hPa SW 1.6 km/h 12.9 km/h 70 % 0.0 mm
13:17 15.9 °C 10.2 °C 1011.4 hPa SW 4.8 km/h 14.5 km/h 69 % 0.0 mm
13:22 15.7 °C 10.0 °C 1011.4 hPa SW 3.2 km/h 14.5 km/h 69 % 0.0 mm
13:27 15.8 °C 10.1 °C 1011.1 hPa SW 8.0 km/h 12.9 km/h 69 % 0.0 mm
13:32 16.0 °C 10.3 °C 1011.1 hPa WSW 3.2 km/h 14.5 km/h 69 % 0.0 mm
13:42 16.3 °C 10.4 °C 1011.1 hPa SW 4.8 km/h 14.5 km/h 68 % 0.0 mm
13:47 16.3 °C 9.9 °C 1011.1 hPa SW 4.8 km/h 17.7 km/h 66 % 0.0 mm
13:52 15.9 °C 9.6 °C 1011.1 hPa WSW 8.0 km/h 19.3 km/h 66 % 0.0 mm
13:57 15.8 °C 9.7 °C 1011.1 hPa SW 6.4 km/h 19.3 km/h 67 % 0.0 mm
14:02 16.0 °C 10.1 °C 1011.1 hPa SW 4.8 km/h 17.7 km/h 68 % 0.0 mm
14:07 16.4 °C 10.3 °C 1011.1 hPa SW 9.7 km/h 16.1 km/h 67 % 0.0 mm
14:12 16.9 °C 11.0 °C 1011.1 hPa Calm   19.3 km/h 68 % 0.0 mm
14:17 17.4 °C 10.3 °C 1010.7 hPa SW 4.8 km/h 19.3 km/h 63 % 0.0 mm
14:22 16.9 °C 9.8 °C 1010.7 hPa WSW 4.8 km/h 19.3 km/h 63 % 0.0 mm
14:32 16.4 °C 10.3 °C 1010.7 hPa SW 4.8 km/h 14.5 km/h 67 % 0.0 mm
14:37 16.3 °C 10.2 °C 1010.7 hPa SW 3.2 km/h 12.9 km/h 67 % 0.0 mm
14:42 16.1 °C 10.0 °C 1010.7 hPa SW 4.8 km/h 16.1 km/h 67 % 0.0 mm
14:47 16.0 °C 10.1 °C 1010.7 hPa WSW 6.4 km/h 16.1 km/h 68 % 0.0 mm
14:52 15.8 °C 9.9 °C 1010.7 hPa WSW 4.8 km/h 16.1 km/h 68 % 0.0 mm
14:57 15.7 °C 10.0 °C 1010.7 hPa SSW 3.2 km/h 14.5 km/h 69 % 0.0 mm
15:02 15.7 °C 9.8 °C 1010.4 hPa WSW 6.4 km/h 14.5 km/h 68 % 0.0 mm
15:07 15.9 °C 10.2 °C 1010.4 hPa West 4.8 km/h 16.1 km/h 69 % 0.0 mm
15:17 17.2 °C 10.8 °C 1010.4 hPa South 9.7 km/h 20.9 km/h 66 % 0.0 mm
15:22 17.6 °C 11.4 °C 1010.4 hPa SW 3.2 km/h 20.9 km/h 67 % 0.0 mm
15:27 17.5 °C 10.8 °C 1010.4 hPa WSW 1.6 km/h 20.9 km/h 65 % 0.0 mm
15:32 17.2 °C 11.0 °C 1010.4 hPa WSW 6.4 km/h 12.9 km/h 67 % 0.0 mm
15:37 17.1 °C 10.7 °C 1010.0 hPa SW 6.4 km/h 11.3 km/h 66 % 0.0 mm
15:42 17.0 °C 10.6 °C 1010.0 hPa SW 6.4 km/h 20.9 km/h 66 % 0.0 mm
15:47 17.5 °C 11.3 °C 1010.0 hPa WNW 4.8 km/h 20.9 km/h 67 % 0.0 mm
15:52 17.7 °C 10.3 °C 1010.0 hPa West 9.7 km/h 20.9 km/h 62 % 0.0 mm
15:57 17.7 °C 10.6 °C 1010.0 hPa WSW 12.9 km/h 22.5 km/h 63 % 0.0 mm
16:02 17.7 °C 10.3 °C 1010.0 hPa WSW 11.3 km/h 22.5 km/h 62 % 0.0 mm
16:07 17.0 °C 9.9 °C 1010.0 hPa ESE 8.0 km/h 22.5 km/h 63 % 0.0 mm
16:12 16.4 °C 9.8 °C 1010.0 hPa SW 9.7 km/h 19.3 km/h 65 % 0.0 mm
16:17 16.2 °C 10.1 °C 1010.0 hPa SW 3.2 km/h 19.3 km/h 67 % 0.0 mm
16:22 16.3 °C 10.6 °C 1010.0 hPa SW 1.6 km/h 19.3 km/h 69 % 0.0 mm
16:27 16.2 °C 10.7 °C 1010.0 hPa West 4.8 km/h 16.1 km/h 70 % 0.0 mm
16:32 16.2 °C 10.7 °C 1010.0 hPa SSW 8.0 km/h 14.5 km/h 70 % 0.0 mm
16:37 16.1 °C 10.2 °C 1010.0 hPa WSW 6.4 km/h 16.1 km/h 68 % 0.0 mm
16:42 15.9 °C 10.2 °C 1010.0 hPa WSW 4.8 km/h 16.1 km/h 69 % 0.0 mm
16:52 15.4 °C 10.0 °C 1009.7 hPa SW 8.0 km/h 12.9 km/h 70 % 0.0 mm
16:57 15.3 °C 10.1 °C 1009.7 hPa SW 6.4 km/h 12.9 km/h 71 % 0.0 mm
17:02 15.2 °C 10.0 °C 1009.7 hPa WSW 8.0 km/h 12.9 km/h 71 % 0.0 mm
17:07 15.1 °C 9.9 °C 1009.7 hPa WSW 1.6 km/h 12.9 km/h 71 % 0.0 mm
17:12 15.2 °C 10.6 °C 1009.4 hPa WSW 4.8 km/h 11.3 km/h 74 % 0.0 mm
17:17 15.4 °C 10.4 °C 1009.4 hPa SW 3.2 km/h 11.3 km/h 72 % 0.0 mm
17:22 16.1 °C 10.8 °C 1009.4 hPa SSW 1.6 km/h 11.3 km/h 71 % 0.0 mm
17:27 16.1 °C 10.4 °C 1009.4 hPa WSW 4.8 km/h 19.3 km/h 69 % 0.0 mm
17:32 15.8 °C 10.6 °C 1009.4 hPa SW 6.4 km/h 19.3 km/h 71 % 0.0 mm
17:42 15.5 °C 10.5 °C 1009.0 hPa WSW 4.8 km/h 12.9 km/h 72 % 0.0 mm
17:47 15.4 °C 10.6 °C 1009.0 hPa South 6.4 km/h 12.9 km/h 73 % 0.0 mm
17:52 15.3 °C 10.5 °C 1009.0 hPa SW 4.8 km/h 12.9 km/h 73 % 0.0 mm
17:57 15.3 °C 10.5 °C 1009.0 hPa South 4.8 km/h 14.5 km/h 73 % 0.0 mm
18:02 15.4 °C 10.6 °C 1008.7 hPa South 1.6 km/h 14.5 km/h 73 % 0.0 mm
18:12 15.6 °C 10.6 °C 1008.7 hPa South 1.6 km/h 14.5 km/h 72 % 0.0 mm
18:17 15.6 °C 10.4 °C 1008.4 hPa West 3.2 km/h 14.5 km/h 71 % 0.0 mm
18:22 15.6 °C 10.8 °C 1008.4 hPa WSW 6.4 km/h 14.5 km/h 73 % 0.0 mm
18:32 15.3 °C 10.5 °C 1008.4 hPa WSW 8.0 km/h 14.5 km/h 73 % 0.0 mm
18:37 15.3 °C 10.3 °C 1008.4 hPa SW 3.2 km/h 14.5 km/h 72 % 0.0 mm
18:42 15.3 °C 10.5 °C 1008.4 hPa SW 6.4 km/h 14.5 km/h 73 % 0.0 mm
18:47 15.1 °C 10.9 °C 1008.4 hPa WSW 4.8 km/h 14.5 km/h 76 % 0.0 mm
18:52 14.9 °C 10.9 °C 1008.4 hPa SW 3.2 km/h 14.5 km/h 77 % 0.0 mm
19:02 14.2 °C 11.2 °C 1008.4 hPa SW 3.2 km/h 16.1 km/h 82 % 0.0 mm
19:07 13.9 °C 11.2 °C 1008.4 hPa WSW 3.2 km/h 16.1 km/h 84 % 0.3 mm
19:12 13.6 °C 11.3 °C 1008.4 hPa SW 4.8 km/h 11.3 km/h 86 % 0.5 mm
19:22 13.2 °C 11.4 °C 1008.4 hPa WSW 6.4 km/h 11.3 km/h 89 % 0.8 mm
19:27 13.0 °C 11.4 °C 1008.4 hPa SSW 4.8 km/h 16.1 km/h 90 % 1.3 mm
19:32 12.8 °C 11.4 °C 1008.4 hPa West 6.4 km/h 16.1 km/h 91 % 1.5 mm
19:37 12.7 °C 11.3 °C 1008.4 hPa WSW 3.2 km/h 11.3 km/h 91 % 1.8 mm
19:42 12.6 °C 11.3 °C 1008.4 hPa WSW 9.7 km/h 17.7 km/h 92 % 2.0 mm
19:52 12.6 °C 11.3 °C 1008.4 hPa WSW 1.6 km/h 17.7 km/h 92 % 2.3 mm
19:57 12.6 °C 11.5 °C 1008.4 hPa WSW 8.0 km/h 16.1 km/h 93 % 2.5 mm
20:02 12.5 °C 11.2 °C 1008.4 hPa WSW 1.6 km/h 17.7 km/h 92 % 2.5 mm
20:12 12.3 °C 11.2 °C 1008.7 hPa SW 1.6 km/h 17.7 km/h 93 % 2.3 mm
20:17 12.3 °C 11.2 °C 1008.4 hPa SW 4.8 km/h 12.9 km/h 93 % 2.0 mm
20:22 12.2 °C 11.1 °C 1008.4 hPa SW 1.6 km/h 12.9 km/h 93 % 2.3 mm
20:32 12.3 °C 11.2 °C 1008.4 hPa Calm   11.3 km/h 93 % 2.0 mm
20:37 12.2 °C 11.1 °C 1008.4 hPa Calm   11.3 km/h 93 % 1.8 mm
20:42 12.1 °C 11.0 °C 1008.4 hPa WSW 6.4 km/h 11.3 km/h 93 % 1.5 mm
20:52 11.8 °C 10.7 °C 1008.4 hPa SW 4.8 km/h 9.7 km/h 93 % 1.0 mm
20:57 11.7 °C 10.6 °C 1008.4 hPa SW 1.6 km/h 9.7 km/h 93 % 1.0 mm
21:02 11.6 °C 10.5 °C 1008.4 hPa SW 1.6 km/h 9.7 km/h 93 % 1.0 mm
21:12 11.4 °C 10.3 °C 1008.4 hPa WSW 3.2 km/h 11.3 km/h 93 % 1.0 mm
21:17 11.4 °C 10.3 °C 1008.4 hPa Calm   11.3 km/h 93 % 0.5 mm
21:22 11.3 °C 10.4 °C 1008.7 hPa SW 3.2 km/h 9.7 km/h 94 % 0.3 mm
21:27 11.3 °C 10.4 °C 1008.7 hPa Calm   9.7 km/h 94 % 0.0 mm
21:37 11.4 °C 10.5 °C 1009.0 hPa SW 6.4 km/h 9.7 km/h 94 % 0.0 mm
21:42 11.4 °C 10.5 °C 1009.0 hPa Calm   9.7 km/h 94 % 0.0 mm
21:47 11.4 °C 10.5 °C 1009.0 hPa West 3.2 km/h 9.7 km/h 94 % 0.0 mm
21:52 11.4 °C 10.3 °C 1009.0 hPa Calm   8.0 km/h 93 % 0.0 mm
22:02 11.5 °C 10.6 °C 1009.4 hPa SW 3.2 km/h 8.0 km/h 94 % 0.0 mm
22:12 11.4 °C 10.3 °C 1009.4 hPa Calm   8.0 km/h 93 % 0.0 mm
Meteo18
Compliments of Weather Underground - 4 mb

Script developed by  Jim McMurry - jmcmurry@mwt.net Adapted for the template by  Wim van der Kuil - Leuven-Template.eu

You find our weather info also at:

European Weather Network

Weather Underground

Equipment we use:

Weather-station
Davis Vue

Weather-program
Meteohub

Weather-server
Raspberry PI 2 B+

Provider
1 and 1

Davis Vue

Meteohub

Raspberry PI 2 B+

1 and 1